createdAt,value
2022-08-12T00:04:33.737Z,22.12
2022-08-12T00:10:00.602Z,22.04
2022-08-12T00:15:30.689Z,21.99
2022-08-12T00:20:56.811Z,21.92
2022-08-12T00:26:24.661Z,21.84
2022-08-12T00:31:54.252Z,21.77
2022-08-12T00:37:15.447Z,21.72
2022-08-12T00:42:39.855Z,21.66
2022-08-12T00:47:55.274Z,21.62
2022-08-12T00:53:05.918Z,21.55
2022-08-12T00:58:14.554Z,21.48
2022-08-12T01:03:26.269Z,21.40
2022-08-12T01:14:25.013Z,21.23
2022-08-12T01:19:36.147Z,21.19
2022-08-12T01:24:57.011Z,21.17
2022-08-12T01:30:11.243Z,21.08
2022-08-12T01:35:25.777Z,20.97
2022-08-12T01:40:50.825Z,20.90
2022-08-12T01:46:12.790Z,20.84
2022-08-12T01:52:20.233Z,20.83
2022-08-12T01:57:57.619Z,20.77
2022-08-12T02:03:18.797Z,20.72
2022-08-12T02:08:59.837Z,20.67
2022-08-12T02:14:47.354Z,20.62
2022-08-12T02:20:05.681Z,20.54
2022-08-12T02:25:23.504Z,20.42
2022-08-12T02:30:43.986Z,20.37
2022-08-12T02:35:54.325Z,20.32
2022-08-12T02:41:07.086Z,20.29
2022-08-12T02:46:20.681Z,20.25
2022-08-12T02:51:32.624Z,20.18
2022-08-12T02:56:50.386Z,20.14
2022-08-12T03:02:03.928Z,20.01
2022-08-12T03:07:14.921Z,20.00
2022-08-12T03:12:21.150Z,19.95
2022-08-12T03:17:38.981Z,19.90
2022-08-12T03:23:03.472Z,19.89
2022-08-12T03:28:23.787Z,19.83
2022-08-12T03:33:31.780Z,19.77
2022-08-12T03:38:44.300Z,19.73
2022-08-12T03:44:15.563Z,19.66
2022-08-12T03:49:43.153Z,19.63
2022-08-12T03:55:06.777Z,19.58
2022-08-12T04:00:24.512Z,19.55
2022-08-12T04:05:55.986Z,19.52
2022-08-12T04:11:19.174Z,19.50
2022-08-12T04:16:29.563Z,19.45
2022-08-12T04:22:02.803Z,19.39
2022-08-12T04:27:12.304Z,19.40
2022-08-12T04:32:20.856Z,19.42
2022-08-12T04:37:58.304Z,19.44
2022-08-12T04:43:06.063Z,19.50
2022-08-12T04:48:35.102Z,19.54
2022-08-12T04:53:42.311Z,19.57
2022-08-12T04:58:52.654Z,19.61
2022-08-12T05:04:08.962Z,19.64
2022-08-12T05:09:14.535Z,19.71
2022-08-12T05:14:24.402Z,19.84
2022-08-12T05:19:29.811Z,20.07
2022-08-12T05:24:38.478Z,21.42
2022-08-12T05:30:05.598Z,21.71
2022-08-12T05:35:16.230Z,24.72
2022-08-12T05:40:25.933Z,27.03
2022-08-12T05:45:33.442Z,28.62
2022-08-12T05:50:41.240Z,30.33
2022-08-12T05:55:56.025Z,30.97
2022-08-12T06:02:10.082Z,31.97
2022-08-12T06:06:39.711Z,33.12
2022-08-12T06:12:05.748Z,33.90
2022-08-12T06:17:23.710Z,34.21
2022-08-12T06:22:34.703Z,35.34
2022-08-12T06:28:06.588Z,36.42
2022-08-12T06:33:55.065Z,36.93
2022-08-12T06:39:04.517Z,37.17
2022-08-12T06:44:28.180Z,35.38
2022-08-12T06:49:37.778Z,36.97
2022-08-12T06:54:56.953Z,38.69
2022-08-12T07:00:05.231Z,39.32
2022-08-12T07:05:28.447Z,36.84
2022-08-12T07:10:44.710Z,36.32
2022-08-12T07:16:03.359Z,37.41
2022-08-12T07:21:59.019Z,35.42
2022-08-12T07:27:11.341Z,34.16
2022-08-12T07:32:29.350Z,33.37
2022-08-12T07:37:56.319Z,32.92
2022-08-12T07:43:15.844Z,32.53
2022-08-12T07:48:44.645Z,32.13
2022-08-12T07:54:03.067Z,31.48
2022-08-12T07:59:20.837Z,31.09
2022-08-12T08:04:55.279Z,30.94
2022-08-12T08:10:35.807Z,30.41
2022-08-12T08:21:12.026Z,29.57
2022-08-12T08:26:38.428Z,29.53
2022-08-12T08:32:00.911Z,29.27
2022-08-12T08:37:21.577Z,30.11
2022-08-12T08:42:51.470Z,29.55
2022-08-12T08:48:03.826Z,29.17
2022-08-12T08:53:14.996Z,29.02
2022-08-12T08:58:31.109Z,28.79
2022-08-12T09:05:10.074Z,28.71
2022-08-12T09:09:13.279Z,28.58
2022-08-12T09:14:29.315Z,28.35
2022-08-12T09:19:42.290Z,28.42
2022-08-12T09:25:06.288Z,28.21
2022-08-12T09:30:42.142Z,28.30
2022-08-12T09:36:02.993Z,28.26
2022-08-12T09:42:08.850Z,28.10
2022-08-12T09:47:02.482Z,28.11
2022-08-12T09:52:18.565Z,28.12
2022-08-12T09:58:44.903Z,28.06
2022-08-12T10:03:32.098Z,27.89
2022-08-12T10:08:52.539Z,27.94
2022-08-12T10:14:01.419Z,27.94
2022-08-12T10:19:37.164Z,28.03
2022-08-12T10:25:17.698Z,28.05
2022-08-12T10:30:39.898Z,28.11
2022-08-12T10:35:56.246Z,28.05
2022-08-12T10:41:58.482Z,28.27
2022-08-12T10:47:03.916Z,28.40
2022-08-12T10:52:40.621Z,28.52
2022-08-12T10:58:27.590Z,28.75
2022-08-12T11:08:50.083Z,28.52
2022-08-12T11:14:04.658Z,28.66
2022-08-12T11:19:12.532Z,28.82
2022-08-12T11:24:31.699Z,28.67
2022-08-12T11:30:06.177Z,28.83
2022-08-12T11:35:07.008Z,28.98
2022-08-12T11:51:10.273Z,29.05
2022-08-12T11:56:38.530Z,29.12
2022-08-12T12:02:01.515Z,29.23
2022-08-12T12:07:12.030Z,29.23
2022-08-12T12:12:32.957Z,29.03
2022-08-12T12:17:48.210Z,28.77
2022-08-12T12:23:06.792Z,28.93
2022-08-12T12:28:37.092Z,29.13
2022-08-12T12:33:57.401Z,29.14
2022-08-12T12:39:06.567Z,29.33
2022-08-12T12:44:25.771Z,29.19
2022-08-12T12:49:38.924Z,28.99
2022-08-12T12:54:53.814Z,28.91
2022-08-12T13:00:27.055Z,28.85
2022-08-12T13:05:42.053Z,29.13
2022-08-12T13:10:50.289Z,29.21
2022-08-12T13:16:00.210Z,29.21
2022-08-12T13:21:04.566Z,29.40
2022-08-12T13:26:14.378Z,29.47
2022-08-12T13:31:21.939Z,29.27
2022-08-12T13:36:32.394Z,29.21
2022-08-12T13:41:37.092Z,29.10
2022-08-12T13:46:44.249Z,29.04
2022-08-12T13:52:09.037Z,28.92
2022-08-12T13:57:16.872Z,28.91
2022-08-12T14:02:25.301Z,29.12
2022-08-12T14:07:48.725Z,29.25
2022-08-12T14:13:06.051Z,29.23
2022-08-12T14:18:23.308Z,29.24
2022-08-12T14:24:02.081Z,29.05
2022-08-12T14:29:03.545Z,28.95
2022-08-12T14:34:12.656Z,28.89
2022-08-12T14:39:31.557Z,28.84
2022-08-12T14:44:58.039Z,28.80
2022-08-12T14:50:57.592Z,28.79
2022-08-12T15:01:49.385Z,28.69
2022-08-12T15:07:02.342Z,28.71
2022-08-12T15:12:13.640Z,28.71
2022-08-12T15:17:37.903Z,28.67
2022-08-12T15:22:53.860Z,28.66
2022-08-12T15:28:06.018Z,28.70
2022-08-12T15:33:45.183Z,28.68
2022-08-12T15:39:17.641Z,28.63
2022-08-12T15:44:38.721Z,28.61
2022-08-12T15:49:59.697Z,28.58
2022-08-12T15:55:16.808Z,28.58
2022-08-12T16:00:32.754Z,28.58
2022-08-12T16:06:12.374Z,28.59
2022-08-12T16:11:18.691Z,28.54
2022-08-12T16:16:25.034Z,28.55
2022-08-12T16:21:52.059Z,28.51
2022-08-12T16:26:58.248Z,28.53
2022-08-12T16:32:07.089Z,28.48
2022-08-12T16:37:17.570Z,28.43
2022-08-12T16:42:35.409Z,28.44
2022-08-12T16:47:58.572Z,28.43
2022-08-12T16:53:06.955Z,28.48
2022-08-12T16:58:28.281Z,28.52
2022-08-12T17:03:38.268Z,28.49
2022-08-12T17:08:55.726Z,28.44
2022-08-12T17:14:04.562Z,28.42
2022-08-12T17:19:19.490Z,28.41
2022-08-12T17:24:30.092Z,28.38
2022-08-12T17:30:02.073Z,28.32
2022-08-12T17:35:30.042Z,28.30
2022-08-12T17:40:44.423Z,28.24
2022-08-12T17:46:00.330Z,28.21
2022-08-12T17:51:19.116Z,28.14
2022-08-12T17:56:31.884Z,28.05
2022-08-12T18:01:43.855Z,28.04
2022-08-12T18:06:50.361Z,28.02
2022-08-12T18:17:59.377Z,27.85
2022-08-12T18:23:10.833Z,27.74
2022-08-12T18:28:31.700Z,27.67
2022-08-12T18:39:26.118Z,27.43
2022-08-12T18:44:37.764Z,27.34
2022-08-12T18:49:50.732Z,27.23
2022-08-12T18:55:08.063Z,27.13
2022-08-12T19:00:26.387Z,27.06
2022-08-12T19:05:53.254Z,26.96
2022-08-12T19:11:21.127Z,26.87
2022-08-12T19:16:30.643Z,26.79
2022-08-12T19:21:56.715Z,26.71
2022-08-12T19:27:06.424Z,26.62
2022-08-12T19:32:23.228Z,26.54
2022-08-12T19:38:04.174Z,26.44
2022-08-12T19:43:21.731Z,26.33
2022-08-12T19:54:03.975Z,26.15
2022-08-12T19:59:43.148Z,26.09
2022-08-12T20:06:04.820Z,26.02
2022-08-12T20:10:35.140Z,25.92
2022-08-12T20:15:45.512Z,25.86
2022-08-12T20:20:53.158Z,25.78
2022-08-12T20:26:10.346Z,25.76
2022-08-12T20:31:27.020Z,25.70
2022-08-12T20:36:48.102Z,25.64
2022-08-12T20:42:16.641Z,25.61
2022-08-12T20:47:26.255Z,25.50
2022-08-12T20:52:55.601Z,25.40
2022-08-12T20:58:12.864Z,25.37
2022-08-12T21:03:52.858Z,25.29
2022-08-12T21:09:11.710Z,25.17
2022-08-12T21:14:40.000Z,25.07
2022-08-12T21:19:54.419Z,24.94
2022-08-12T21:25:18.577Z,24.85
2022-08-12T21:30:37.420Z,24.74
2022-08-12T21:35:45.252Z,24.67
2022-08-12T21:41:15.572Z,24.56
2022-08-12T21:46:35.669Z,24.50
2022-08-12T21:51:49.526Z,24.41
2022-08-12T21:56:58.299Z,24.36
2022-08-12T22:02:30.888Z,24.33
2022-08-12T22:08:02.354Z,24.28
2022-08-12T22:14:02.010Z,24.17
2022-08-12T22:18:41.586Z,24.16
2022-08-12T22:24:05.975Z,24.09
2022-08-12T22:29:33.829Z,24.02
2022-08-12T22:34:57.449Z,23.91
2022-08-12T22:40:07.436Z,23.83
2022-08-12T22:45:32.149Z,23.77
2022-08-12T22:50:59.410Z,23.70
2022-08-12T22:56:22.173Z,23.64
2022-08-12T23:01:52.667Z,23.57
2022-08-12T23:07:12.851Z,23.53
2022-08-12T23:12:46.999Z,23.46
2022-08-12T23:23:22.035Z,23.35
2022-08-12T23:28:45.514Z,23.27
2022-08-12T23:34:11.783Z,23.19
2022-08-12T23:40:14.608Z,23.14
2022-08-12T23:45:03.639Z,23.05
2022-08-12T23:50:24.537Z,22.93
2022-08-12T23:55:43.944Z,22.88
